メインページ
METAR-TAF:

METAR-TAF

空港 :

ポロクワネ, 南アフリカ共和国

緯度: 23-50-43S, 経度: 29-27-31E, 海抜: 1242m

現時点の気象観測

当レポートは57分前の05:00(UTC)に作成
南/南西の風 4kt
気温 6°C
湿度 93%
気圧 1028 hPa

METAR: FAPP 260500Z AUTO 21004KT //// // ////// 06/05 Q1028

時間: 07:57 (05:57 UTC)

予報

当レポートは2時間57分前の03:00(UTC)に作成
予報は26日の 04時(UTC)から 26日の 15時(UTC)まで有効
変向風 3kt
視程10km以上
1,500メートル以下は雲なし、積乱雲なし
26日の 11時(UTC)から 26日の 13時(UTC)まで徐々に
の風 10kt

TAF: FAPP 260300Z 2604/2615 VRB03KT CAVOK TX24/2612Z TN06/2604Z BECMG 2611/2613 18010KT

4,000以上の空港の気象観測と天気予報(METAR報とTAF報)

利用可能な観測所は地図上に黄色い丸と赤い丸で示す。

丸の上にカーソルを重ねると観測所名を参照できる。

次にクリックすると気象観測と天気予報を参照できる。

マップの切り替え:黒色「×」印の緑ボタンをクリックして拡大、「-」印の緑ボタンをクリックして縮小、緑色の三角印をクリックして隣りの地図に切り替え


METAR-TAF: